Tuesday, January 22, 2019, 4:17 PM EST
Back to Local

KVSF, Hartness State Airport

Location: Perkinsville, VT, United States Lat: 43.35
Local Time: 4:17 PM EST (21:17 GMT) Lon: -72.517
Time Zone: US/Eastern Elev: 577 ft

Show me the last for .
Show Decoded

2019-01-22 15:54 METAR KVSF 222054Z AUTO 29008KT 10SM CLR M09/M24 A3053 RMK AO2 SLP354 60000
                 T10891244 53009 =
2019-01-22 14:54 METAR KVSF 221954Z AUTO 24008KT 10SM CLR M08/M23 A3053 RMK AO2 SLP353 T10831233
                 =
2019-01-22 13:54 METAR KVSF 221854Z AUTO 26012KT 10SM CLR M08/M23 A3051 RMK AO2 SNE10 SLP346
                 P0000 T10831228 =
2019-01-22 13:10 METAR KVSF 221810Z AUTO 26010KT 3SM HZ FEW001 M08/M22 A3051 RMK AO2 SNE10 P0000
                 T10831217 =
2019-01-22 12:54 METAR KVSF 221754Z AUTO 27009KT 3/4SM -SN VV001 M09/M20 A3051 RMK AO2 VIS 1/4V5
                 SNB51 SLP345 P0000 60000 T10941200 11094 21172 56004 =
2019-01-22 12:50 METAR KVSF 221750Z AUTO 25009KT 1 1/4SM HZ FEW001 M09/M22 A3050 RMK AO2 =
2019-01-22 11:54 METAR KVSF 221654Z AUTO VRB05KT 10SM CLR M09/M22 A3051 RMK AO2 SLP347 T10941222
                 =
2019-01-22 10:54 METAR KVSF 221554Z AUTO VRB05KT 10SM CLR M11/M23 A3050 RMK AO2 SLP345 T11111228
                 =
2019-01-22 09:54 METAR KVSF 221454Z AUTO 29008KT 260V330 10SM CLR M13/M23 A3052 RMK AO2 SLP351
                 T11331233 51026 =
2019-01-22 08:54 METAR KVSF 221354Z AUTO 27005KT 10SM CLR M16/M23 A3049 RMK AO2 SLP342 T11561233
                 =
2019-01-22 07:54 METAR KVSF 221254Z AUTO 29009KT 10SM CLR M17/M24 A3047 RMK AO2 SLP336 T11671239
                 =
2019-01-22 06:54 METAR KVSF 221154Z AUTO 29010G15KT 10SM CLR M17/M24 A3044 RMK AO2 PRESRR SLP325
                 T11721239 11161 21178 53039 =
2019-01-22 05:54 METAR KVSF 221054Z AUTO 29013G21KT 10SM CLR M17/M24 A3039 RMK AO2 SLP307
                 T11721239 =
2019-01-22 04:54 METAR KVSF 220954Z AUTO 28015G21KT 10SM CLR M18/M24 A3035 RMK AO2 SLP293
                 T11781239 =
2019-01-22 03:54 METAR KVSF 220854Z AUTO 29009G18KT 10SM CLR M17/M24 A3032 RMK AO2 PK WND
                 28026/0758 SLP285 T11721244 53027 =
2019-01-22 02:54 METAR KVSF 220754Z AUTO 29013KT 10SM CLR M17/M24 A3028 RMK AO2 SLP272 T11721244
                 =
2019-01-22 01:54 METAR KVSF 220654Z AUTO 30009G17KT 10SM CLR M17/M25 A3026 RMK AO2 PK WND
                 31028/0609 SLP264 T11721250 =
2019-01-22 00:54 METAR KVSF 220554Z AUTO VRB06G19KT 10SM CLR M17/M25 A3024 RMK AO2 SLP257 60000
                 T11721250 11167 21183 51046 =
2019-01-21 23:54 METAR KVSF 220454Z AUTO 34008G23KT 300V030 10SM CLR M18/M26 A3022 RMK AO2 PK WND
                 30026/0425 SLP251 T11781256 411781211 =
2019-01-21 22:54 METAR KVSF 220354Z AUTO 30014G27KT 7SM CLR M18/M26 A3017 RMK AO2 PK WND
                 30033/0259 SLP235 T11831261 =
2019-01-21 21:54 METAR KVSF 220254Z AUTO 32014G29KT 280V360 5SM BLSN CLR M18/M26 A3010 RMK AO2 PK
                 WND 30029/0252 UPB03E12 SLP211 P0000 60000 T11781256 50020 =
2019-01-21 20:54 METAR KVSF 220154Z AUTO VRB06G19KT 10SM CLR M18/M25 A3011 RMK AO2 SLP213
                 T11781250 =
2019-01-21 20:39 METAR KVSF 220139Z AUTO 34010G16KT 10SM SCT024 M18/M24 A3010 RMK AO2 T11781239 =
2019-01-21 20:23 METAR KVSF 220123Z AUTO 33009G17KT 290V020 10SM OVC028 M18/M23 A3009 RMK AO2
                 T11831233 =
2019-01-21 19:54 METAR KVSF 220054Z AUTO 31008G18KT 10SM FEW032 OVC044 M18/M23 A3008 RMK AO2
                 SNE28 SLP204 P0000 T11831233 =
2019-01-21 18:54 METAR KVSF 212354Z AUTO 30013G21KT 4SM -SN OVC037 M18/M23 A3004 RMK AO2 SLP191
                 P0000 60000 T11781233 11178 21189 53031 =
2019-01-21 18:23 METAR KVSF 212323Z AUTO 30012G18KT 3SM -SN OVC031 M18/M23 A3002 RMK AO2 P0000
                 T11781228 =
2019-01-21 18:10 METAR KVSF 212310Z AUTO 30007G17KT 260V340 3SM -SN OVC029 M18/M23 A3001 RMK AO2
                 P0000 T11781228 =
2019-01-21 18:01 METAR KVSF 212301Z AUTO 29010G20KT 2 1/2SM -SN OVC029 M18/M23 A3000 RMK AO2
                 P0000 T11781228 =
2019-01-21 17:54 METAR KVSF 212254Z AUTO 28012G20KT 230V320 3SM -SN OVC033 M18/M23 A3000 RMK AO2
                 UPE03B30E31SNB43 SLP175 P0000 T11781228 =
2019-01-21 17:06 METAR KVSF 212206Z AUTO 32009G17KT 6SM HZ OVC033 M18/M23 A2996 RMK AO2 UPE03
                 P0000 T11781233 =
2019-01-21 16:54 METAR KVSF 212154Z AUTO 31010G24KT 4SM UP OVC027 M18/M23 A2995 RMK AO2
                 UPB52SNB23E37 SLP160 P0000 T11781233 =
2019-01-21 16:52 METAR KVSF 212152Z AUTO 29015G24KT 4SM UP OVC027 M18/M23 A2995 RMK AO2
                 UPB52SNB23E37 P0000 =
2019-01-21 16:40 METAR KVSF 212140Z AUTO 28010G18KT 220V340 2 1/2SM HZ OVC025 M18/M23 A2994 RMK
                 AO2 SNB23E37 P0000 T11781228 =
2019-01-21 16:30 METAR KVSF 212130Z AUTO 30011G21KT 280V340 1 3/4SM -SN OVC025 M18/M23 A2993 RMK
                 AO2 SNB23 P0000 T11781228 =
2019-01-21 16:21 METAR KVSF 212121Z AUTO 32013G20KT 2SM HZ OVC025 M18/M23 A2993 RMK AO2 VIS 1
                 1/2V3 T11781228 =

Support USWX by starting your Amazon purchase here.